sensor_id;sensor_type;location;lat;lon;timestamp;P1;durP1;ratioP1;P2;durP2;ratioP2
64738;SDS011;51175;51.186;0.276;2024-02-26T00:00:20;8.15;;;3.30;;
64738;SDS011;51175;51.186;0.276;2024-02-26T00:00:51;8.82;;;3.58;;
64738;SDS011;51175;51.186;0.276;2024-02-26T00:01:21;11.18;;;3.75;;
64738;SDS011;51175;51.186;0.276;2024-02-26T00:01:52;12.13;;;3.83;;
64738;SDS011;51175;51.186;0.276;2024-02-26T00:02:22;12.93;;;4.28;;
64738;SDS011;51175;51.186;0.276;2024-02-26T00:02:56;12.13;;;3.95;;
64738;SDS011;51175;51.186;0.276;2024-02-26T00:03:29;16.73;;;3.72;;
64738;SDS011;51175;51.186;0.276;2024-02-26T00:03:59;9.38;;;3.70;;
64738;SDS011;51175;51.186;0.276;2024-02-26T00:04:32;12.32;;;4.18;;
64738;SDS011;51175;51.186;0.276;2024-02-26T00:05:02;14.25;;;5.03;;
64738;SDS011;51175;51.186;0.276;2024-02-26T00:05:34;11.63;;;3.90;;
64738;SDS011;51175;51.186;0.276;2024-02-26T00:06:05;15.15;;;4.75;;
64738;SDS011;51175;51.186;0.276;2024-02-26T00:06:35;13.50;;;5.03;;
64738;SDS011;51175;51.186;0.276;2024-02-26T00:07:06;15.02;;;6.18;;
64738;SDS011;51175;51.186;0.276;2024-02-26T00:07:40;13.43;;;5.10;;
64738;SDS011;51175;51.186;0.276;2024-02-26T00:08:13;13.80;;;5.03;;
64738;SDS011;51175;51.186;0.276;2024-02-26T00:08:44;14.50;;;5.40;;
64738;SDS011;51175;51.186;0.276;2024-02-26T00:09:20;13.48;;;5.10;;
64738;SDS011;51175;51.186;0.276;2024-02-26T00:09:50;15.75;;;5.15;;
64738;SDS011;51175;51.186;0.276;2024-02-26T00:10:23;15.80;;;5.93;;
64738;SDS011;51175;51.186;0.276;2024-02-26T00:10:58;18.80;;;6.50;;
64738;SDS011;51175;51.186;0.276;2024-02-26T00:11:29;15.20;;;5.10;;
64738;SDS011;51175;51.186;0.276;2024-02-26T00:12:00;12.75;;;5.15;;
64738;SDS011;51175;51.186;0.276;2024-02-26T00:12:31;15.25;;;6.03;;
64738;SDS011;51175;51.186;0.276;2024-02-26T00:13:01;17.08;;;5.90;;
64738;SDS011;51175;51.186;0.276;2024-02-26T00:13:32;17.15;;;5.32;;
64738;SDS011;51175;51.186;0.276;2024-02-26T00:14:02;16.42;;;6.20;;
64738;SDS011;51175;51.186;0.276;2024-02-26T00:14:33;17.95;;;6.18;;
64738;SDS011;51175;51.186;0.276;2024-02-26T00:15:04;15.38;;;5.93;;
64738;SDS011;51175;51.186;0.276;2024-02-26T00:15:35;13.85;;;5.63;;
64738;SDS011;51175;51.186;0.276;2024-02-26T00:16:06;15.73;;;5.57;;
64738;SDS011;51175;51.186;0.276;2024-02-26T00:16:39;16.00;;;5.93;;
64738;SDS011;51175;51.186;0.276;2024-02-26T00:17:15;16.00;;;7.28;;
64738;SDS011;51175;51.186;0.276;2024-02-26T00:17:45;14.73;;;5.93;;
64738;SDS011;51175;51.186;0.276;2024-02-26T00:18:16;16.50;;;6.25;;
64738;SDS011;51175;51.186;0.276;2024-02-26T00:18:46;18.50;;;5.25;;
64738;SDS011;51175;51.186;0.276;2024-02-26T00:19:17;19.60;;;6.05;;
64738;SDS011;51175;51.186;0.276;2024-02-26T00:19:47;12.48;;;5.15;;
64738;SDS011;51175;51.186;0.276;2024-02-26T00:20:20;15.38;;;5.63;;
64738;SDS011;51175;51.186;0.276;2024-02-26T00:20:51;12.90;;;5.70;;
64738;SDS011;51175;51.186;0.276;2024-02-26T00:21:21;14.35;;;4.57;;
64738;SDS011;51175;51.186;0.276;2024-02-26T00:21:52;16.73;;;5.82;;
64738;SDS011;51175;51.186;0.276;2024-02-26T00:22:26;14.48;;;5.57;;
64738;SDS011;51175;51.186;0.276;2024-02-26T00:22:57;15.40;;;5.15;;
64738;SDS011;51175;51.186;0.276;2024-02-26T00:23:27;15.20;;;5.93;;
64738;SDS011;51175;51.186;0.276;2024-02-26T00:24:01;12.85;;;5.40;;
64738;SDS011;51175;51.186;0.276;2024-02-26T00:24:31;15.35;;;6.60;;
64738;SDS011;51175;51.186;0.276;2024-02-26T00:25:02;16.40;;;5.20;;
64738;SDS011;51175;51.186;0.276;2024-02-26T00:25:33;16.48;;;6.50;;
64738;SDS011;51175;51.186;0.276;2024-02-26T00:26:06;19.35;;;6.15;;
64738;SDS011;51175;51.186;0.276;2024-02-26T00:26:41;18.08;;;6.07;;
64738;SDS011;51175;51.186;0.276;2024-02-26T00:27:11;13.80;;;5.43;;
64738;SDS011;51175;51.186;0.276;2024-02-26T00:27:44;14.00;;;5.78;;
64738;SDS011;51175;51.186;0.276;2024-02-26T00:28:14;14.27;;;5.68;;
64738;SDS011;51175;51.186;0.276;2024-02-26T00:28:45;16.30;;;5.30;;
64738;SDS011;51175;51.186;0.276;2024-02-26T00:29:18;16.52;;;5.82;;
64738;SDS011;51175;51.186;0.276;2024-02-26T00:29:49;16.40;;;5.53;;
64738;SDS011;51175;51.186;0.276;2024-02-26T00:30:20;16.30;;;4.85;;
64738;SDS011;51175;51.186;0.276;2024-02-26T00:30:50;18.65;;;6.10;;
64738;SDS011;51175;51.186;0.276;2024-02-26T00:31:26;16.38;;;6.95;;
64738;SDS011;51175;51.186;0.276;2024-02-26T00:31:56;19.55;;;5.68;;
64738;SDS011;51175;51.186;0.276;2024-02-26T00:32:26;20.55;;;5.72;;
64738;SDS011;51175;51.186;0.276;2024-02-26T00:32:57;18.40;;;5.97;;
64738;SDS011;51175;51.186;0.276;2024-02-26T00:33:27;14.23;;;4.28;;
64738;SDS011;51175;51.186;0.276;2024-02-26T00:34:04;13.45;;;4.90;;
64738;SDS011;51175;51.186;0.276;2024-02-26T00:34:36;14.98;;;5.82;;
64738;SDS011;51175;51.186;0.276;2024-02-26T00:35:07;21.52;;;7.05;;
64738;SDS011;51175;51.186;0.276;2024-02-26T00:35:39;19.13;;;5.50;;
64738;SDS011;51175;51.186;0.276;2024-02-26T00:36:09;14.38;;;6.22;;
64738;SDS011;51175;51.186;0.276;2024-02-26T00:36:43;19.63;;;5.30;;
64738;SDS011;51175;51.186;0.276;2024-02-26T00:37:13;13.75;;;5.25;;
64738;SDS011;51175;51.186;0.276;2024-02-26T00:37:46;15.00;;;5.70;;
64738;SDS011;51175;51.186;0.276;2024-02-26T00:38:17;21.98;;;6.47;;
64738;SDS011;51175;51.186;0.276;2024-02-26T00:38:47;18.52;;;5.85;;
64738;SDS011;51175;51.186;0.276;2024-02-26T00:39:20;19.73;;;5.90;;
64738;SDS011;51175;51.186;0.276;2024-02-26T00:39:51;19.75;;;5.50;;
64738;SDS011;51175;51.186;0.276;2024-02-26T00:40:25;13.95;;;4.97;;
64738;SDS011;51175;51.186;0.276;2024-02-26T00:40:56;18.08;;;5.35;;
64738;SDS011;51175;51.186;0.276;2024-02-26T00:41:26;16.17;;;4.93;;
64738;SDS011;51175;51.186;0.276;2024-02-26T00:41:57;15.43;;;5.80;;
64738;SDS011;51175;51.186;0.276;2024-02-26T00:42:27;19.90;;;5.90;;
64738;SDS011;51175;51.186;0.276;2024-02-26T00:42:57;25.55;;;6.28;;
64738;SDS011;51175;51.186;0.276;2024-02-26T00:43:28;18.55;;;5.65;;
64738;SDS011;51175;51.186;0.276;2024-02-26T00:43:59;16.65;;;5.80;;
64738;SDS011;51175;51.186;0.276;2024-02-26T00:44:30;25.52;;;8.13;;
64738;SDS011;51175;51.186;0.276;2024-02-26T00:45:01;20.48;;;7.18;;
64738;SDS011;51175;51.186;0.276;2024-02-26T00:45:33;29.40;;;7.25;;
64738;SDS011;51175;51.186;0.276;2024-02-26T00:46:04;24.42;;;7.72;;
64738;SDS011;51175;51.186;0.276;2024-02-26T00:46:34;22.60;;;7.30;;
64738;SDS011;51175;51.186;0.276;2024-02-26T00:47:05;24.60;;;6.85;;
64738;SDS011;51175;51.186;0.276;2024-02-26T00:47:35;19.25;;;6.38;;
64738;SDS011;51175;51.186;0.276;2024-02-26T00:48:06;24.23;;;6.65;;
64738;SDS011;51175;51.186;0.276;2024-02-26T00:48:37;21.02;;;6.18;;
64738;SDS011;51175;51.186;0.276;2024-02-26T00:49:07;21.00;;;7.75;;
64738;SDS011;51175;51.186;0.276;2024-02-26T00:49:38;19.90;;;6.10;;
64738;SDS011;51175;51.186;0.276;2024-02-26T00:50:08;22.60;;;8.43;;
64738;SDS011;51175;51.186;0.276;2024-02-26T00:50:39;23.50;;;8.90;;
64738;SDS011;51175;51.186;0.276;2024-02-26T00:51:10;18.98;;;6.63;;
64738;SDS011;51175;51.186;0.276;2024-02-26T00:51:40;22.27;;;6.82;;
64738;SDS011;51175;51.186;0.276;2024-02-26T00:52:11;21.73;;;6.93;;
64738;SDS011;51175;51.186;0.276;2024-02-26T00:52:41;15.75;;;6.10;;
64738;SDS011;51175;51.186;0.276;2024-02-26T00:53:11;20.08;;;7.03;;
64738;SDS011;51175;51.186;0.276;2024-02-26T00:53:42;18.95;;;9.18;;
64738;SDS011;51175;51.186;0.276;2024-02-26T00:54:12;23.25;;;7.35;;
64738;SDS011;51175;51.186;0.276;2024-02-26T00:54:43;17.92;;;6.43;;
64738;SDS011;51175;51.186;0.276;2024-02-26T00:55:13;18.00;;;6.07;;
64738;SDS011;51175;51.186;0.276;2024-02-26T00:55:43;24.05;;;7.13;;
64738;SDS011;51175;51.186;0.276;2024-02-26T00:56:14;22.02;;;7.80;;
64738;SDS011;51175;51.186;0.276;2024-02-26T00:56:44;19.17;;;5.97;;
64738;SDS011;51175;51.186;0.276;2024-02-26T00:57:15;19.65;;;7.75;;
64738;SDS011;51175;51.186;0.276;2024-02-26T00:57:45;23.98;;;7.65;;
64738;SDS011;51175;51.186;0.276;2024-02-26T00:58:16;22.83;;;7.22;;
64738;SDS011;51175;51.186;0.276;2024-02-26T00:58:46;23.40;;;7.13;;
64738;SDS011;51175;51.186;0.276;2024-02-26T00:59:17;16.25;;;6.35;;
64738;SDS011;51175;51.186;0.276;2024-02-26T00:59:47;19.48;;;7.32;;
64738;SDS011;51175;51.186;0.276;2024-02-26T01:00:20;25.58;;;8.15;;
64738;SDS011;51175;51.186;0.276;2024-02-26T01:00:51;25.33;;;6.45;;
64738;SDS011;51175;51.186;0.276;2024-02-26T01:01:21;23.75;;;7.80;;
64738;SDS011;51175;51.186;0.276;2024-02-26T01:01:52;22.75;;;6.90;;
64738;SDS011;51175;51.186;0.276;2024-02-26T01:02:22;22.00;;;8.52;;
64738;SDS011;51175;51.186;0.276;2024-02-26T01:02:53;22.27;;;7.80;;
64738;SDS011;51175;51.186;0.276;2024-02-26T01:03:23;25.73;;;7.47;;
64738;SDS011;51175;51.186;0.276;2024-02-26T01:03:54;24.10;;;7.43;;
64738;SDS011;51175;51.186;0.276;2024-02-26T01:04:24;18.50;;;6.07;;
64738;SDS011;51175;51.186;0.276;2024-02-26T01:04:54;22.58;;;8.48;;
64738;SDS011;51175;51.186;0.276;2024-02-26T01:05:25;18.52;;;7.80;;
64738;SDS011;51175;51.186;0.276;2024-02-26T01:05:55;20.33;;;7.10;;
64738;SDS011;51175;51.186;0.276;2024-02-26T01:06:28;26.65;;;7.30;;
64738;SDS011;51175;51.186;0.276;2024-02-26T01:06:58;23.42;;;8.30;;
64738;SDS011;51175;51.186;0.276;2024-02-26T01:07:29;17.73;;;6.43;;
64738;SDS011;51175;51.186;0.276;2024-02-26T01:08:03;27.67;;;9.20;;
64738;SDS011;51175;51.186;0.276;2024-02-26T01:08:34;24.85;;;6.72;;
64738;SDS011;51175;51.186;0.276;2024-02-26T01:09:05;21.25;;;6.75;;
64738;SDS011;51175;51.186;0.276;2024-02-26T01:09:36;19.17;;;6.85;;
64738;SDS011;51175;51.186;0.276;2024-02-26T01:10:06;23.20;;;7.88;;
64738;SDS011;51175;51.186;0.276;2024-02-26T01:10:37;13.60;;;6.82;;
64738;SDS011;51175;51.186;0.276;2024-02-26T01:11:07;29.90;;;7.53;;
64738;SDS011;51175;51.186;0.276;2024-02-26T01:11:38;19.27;;;6.88;;
64738;SDS011;51175;51.186;0.276;2024-02-26T01:12:08;23.95;;;8.23;;
64738;SDS011;51175;51.186;0.276;2024-02-26T01:12:39;30.25;;;7.75;;
64738;SDS011;51175;51.186;0.276;2024-02-26T01:13:09;18.73;;;8.20;;
64738;SDS011;51175;51.186;0.276;2024-02-26T01:13:40;21.55;;;7.63;;
64738;SDS011;51175;51.186;0.276;2024-02-26T01:14:10;19.45;;;7.70;;
64738;SDS011;51175;51.186;0.276;2024-02-26T01:14:40;25.92;;;8.23;;
64738;SDS011;51175;51.186;0.276;2024-02-26T01:15:11;22.77;;;8.05;;
64738;SDS011;51175;51.186;0.276;2024-02-26T01:15:41;23.90;;;8.20;;
64738;SDS011;51175;51.186;0.276;2024-02-26T01:16:15;28.85;;;10.10;;
64738;SDS011;51175;51.186;0.276;2024-02-26T01:16:45;29.15;;;9.50;;
64738;SDS011;51175;51.186;0.276;2024-02-26T01:17:15;23.77;;;9.05;;
64738;SDS011;51175;51.186;0.276;2024-02-26T01:17:46;28.20;;;8.77;;
64738;SDS011;51175;51.186;0.276;2024-02-26T01:18:18;20.13;;;8.93;;
64738;SDS011;51175;51.186;0.276;2024-02-26T01:18:49;28.98;;;9.50;;
64738;SDS011;51175;51.186;0.276;2024-02-26T01:19:22;28.92;;;8.82;;
64738;SDS011;51175;51.186;0.276;2024-02-26T01:19:53;25.27;;;9.65;;
64738;SDS011;51175;51.186;0.276;2024-02-26T01:20:24;33.92;;;9.90;;
64738;SDS011;51175;51.186;0.276;2024-02-26T01:20:54;25.67;;;11.50;;
64738;SDS011;51175;51.186;0.276;2024-02-26T01:21:25;27.65;;;10.60;;
64738;SDS011;51175;51.186;0.276;2024-02-26T01:21:56;26.63;;;9.80;;
64738;SDS011;51175;51.186;0.276;2024-02-26T01:22:27;24.55;;;10.82;;
64738;SDS011;51175;51.186;0.276;2024-02-26T01:22:57;29.50;;;9.52;;
64738;SDS011;51175;51.186;0.276;2024-02-26T01:23:27;22.33;;;10.85;;
64738;SDS011;51175;51.186;0.276;2024-02-26T01:23:58;35.35;;;10.80;;
64738;SDS011;51175;51.186;0.276;2024-02-26T01:24:29;26.80;;;9.93;;
64738;SDS011;51175;51.186;0.276;2024-02-26T01:24:59;24.15;;;10.52;;
64738;SDS011;51175;51.186;0.276;2024-02-26T01:25:30;26.65;;;10.50;;
64738;SDS011;51175;51.186;0.276;2024-02-26T01:26:00;23.00;;;9.90;;
64738;SDS011;51175;51.186;0.276;2024-02-26T01:26:30;31.17;;;9.85;;
64738;SDS011;51175;51.186;0.276;2024-02-26T01:27:01;39.35;;;15.02;;
64738;SDS011;51175;51.186;0.276;2024-02-26T01:27:31;26.13;;;11.00;;
64738;SDS011;51175;51.186;0.276;2024-02-26T01:28:01;23.50;;;12.52;;
64738;SDS011;51175;51.186;0.276;2024-02-26T01:28:33;22.98;;;9.90;;
64738;SDS011;51175;51.186;0.276;2024-02-26T01:29:03;20.80;;;10.52;;
64738;SDS011;51175;51.186;0.276;2024-02-26T01:29:33;23.08;;;9.40;;
64738;SDS011;51175;51.186;0.276;2024-02-26T01:30:04;22.75;;;10.88;;
64738;SDS011;51175;51.186;0.276;2024-02-26T01:30:36;29.10;;;10.52;;
64738;SDS011;51175;51.186;0.276;2024-02-26T01:31:06;21.92;;;10.27;;
64738;SDS011;51175;51.186;0.276;2024-02-26T01:31:38;25.38;;;11.25;;
64738;SDS011;51175;51.186;0.276;2024-02-26T01:32:11;26.70;;;10.18;;
64738;SDS011;51175;51.186;0.276;2024-02-26T01:32:41;24.77;;;10.60;;
64738;SDS011;51175;51.186;0.276;2024-02-26T01:33:11;21.73;;;10.15;;
64738;SDS011;51175;51.186;0.276;2024-02-26T01:33:42;24.55;;;9.35;;
64738;SDS011;51175;51.186;0.276;2024-02-26T01:34:12;22.70;;;9.10;;
64738;SDS011;51175;51.186;0.276;2024-02-26T01:34:44;28.45;;;12.52;;
64738;SDS011;51175;51.186;0.276;2024-02-26T01:35:14;38.65;;;11.32;;
64738;SDS011;51175;51.186;0.276;2024-02-26T01:35:47;22.92;;;9.57;;
64738;SDS011;51175;51.186;0.276;2024-02-26T01:36:18;24.50;;;11.13;;
64738;SDS011;51175;51.186;0.276;2024-02-26T01:36:48;25.17;;;10.20;;
64738;SDS011;51175;51.186;0.276;2024-02-26T01:37:21;24.45;;;11.38;;
64738;SDS011;51175;51.186;0.276;2024-02-26T01:37:52;29.52;;;11.20;;
64738;SDS011;51175;51.186;0.276;2024-02-26T01:38:22;33.42;;;11.88;;
64738;SDS011;51175;51.186;0.276;2024-02-26T01:38:53;27.48;;;10.55;;
64738;SDS011;51175;51.186;0.276;2024-02-26T01:39:23;24.38;;;10.30;;
64738;SDS011;51175;51.186;0.276;2024-02-26T01:39:54;22.52;;;9.30;;
64738;SDS011;51175;51.186;0.276;2024-02-26T01:40:26;25.02;;;10.73;;
64738;SDS011;51175;51.186;0.276;2024-02-26T01:40:57;27.48;;;10.40;;
64738;SDS011;51175;51.186;0.276;2024-02-26T01:41:27;21.35;;;9.80;;
64738;SDS011;51175;51.186;0.276;2024-02-26T01:41:58;34.35;;;10.75;;
64738;SDS011;51175;51.186;0.276;2024-02-26T01:42:28;22.42;;;10.55;;
64738;SDS011;51175;51.186;0.276;2024-02-26T01:42:59;29.15;;;10.40;;
64738;SDS011;51175;51.186;0.276;2024-02-26T01:43:33;25.13;;;9.75;;
64738;SDS011;51175;51.186;0.276;2024-02-26T01:44:04;27.15;;;10.15;;
64738;SDS011;51175;51.186;0.276;2024-02-26T01:44:34;26.75;;;9.85;;
64738;SDS011;51175;51.186;0.276;2024-02-26T01:45:05;20.90;;;10.00;;
64738;SDS011;51175;51.186;0.276;2024-02-26T01:45:37;19.75;;;9.68;;
64738;SDS011;51175;51.186;0.276;2024-02-26T01:46:09;18.33;;;8.93;;
64738;SDS011;51175;51.186;0.276;2024-02-26T01:46:46;24.48;;;10.50;;
64738;SDS011;51175;51.186;0.276;2024-02-26T01:47:17;27.25;;;11.05;;
64738;SDS011;51175;51.186;0.276;2024-02-26T01:47:49;26.27;;;9.25;;
64738;SDS011;51175;51.186;0.276;2024-02-26T01:48:21;25.50;;;10.20;;
64738;SDS011;51175;51.186;0.276;2024-02-26T01:48:51;39.30;;;13.63;;
64738;SDS011;51175;51.186;0.276;2024-02-26T01:49:22;27.08;;;10.93;;
64738;SDS011;51175;51.186;0.276;2024-02-26T01:49:52;30.88;;;11.13;;
64738;SDS011;51175;51.186;0.276;2024-02-26T01:50:24;26.83;;;11.65;;
64738;SDS011;51175;51.186;0.276;2024-02-26T01:50:54;21.42;;;9.18;;
64738;SDS011;51175;51.186;0.276;2024-02-26T01:51:25;21.73;;;10.15;;
64738;SDS011;51175;51.186;0.276;2024-02-26T01:51:55;18.77;;;10.82;;
64738;SDS011;51175;51.186;0.276;2024-02-26T01:52:28;28.58;;;10.82;;
64738;SDS011;51175;51.186;0.276;2024-02-26T01:52:58;23.80;;;11.55;;
64738;SDS011;51175;51.186;0.276;2024-02-26T01:53:29;21.70;;;10.57;;
64738;SDS011;51175;51.186;0.276;2024-02-26T01:54:02;36.50;;;11.82;;
64738;SDS011;51175;51.186;0.276;2024-02-26T01:54:37;25.65;;;12.57;;
64738;SDS011;51175;51.186;0.276;2024-02-26T01:55:08;26.23;;;10.68;;
64738;SDS011;51175;51.186;0.276;2024-02-26T01:55:38;25.02;;;10.95;;
64738;SDS011;51175;51.186;0.276;2024-02-26T01:56:09;29.92;;;13.13;;
64738;SDS011;51175;51.186;0.276;2024-02-26T01:56:40;23.02;;;10.43;;
64738;SDS011;51175;51.186;0.276;2024-02-26T01:57:13;28.33;;;10.15;;
64738;SDS011;51175;51.186;0.276;2024-02-26T01:57:45;26.75;;;12.85;;
64738;SDS011;51175;51.186;0.276;2024-02-26T01:58:17;29.55;;;12.15;;
64738;SDS011;51175;51.186;0.276;2024-02-26T01:58:48;26.17;;;12.18;;
64738;SDS011;51175;51.186;0.276;2024-02-26T01:59:19;36.40;;;11.90;;
64738;SDS011;51175;51.186;0.276;2024-02-26T01:59:50;29.15;;;10.65;;
64738;SDS011;51175;51.186;0.276;2024-02-26T02:00:20;22.63;;;11.52;;
64738;SDS011;51175;51.186;0.276;2024-02-26T02:00:54;28.95;;;12.23;;
64738;SDS011;51175;51.186;0.276;2024-02-26T02:01:27;25.38;;;11.45;;
64738;SDS011;51175;51.186;0.276;2024-02-26T02:02:05;25.10;;;10.90;;
64738;SDS011;51175;51.186;0.276;2024-02-26T02:02:38;27.65;;;12.15;;
64738;SDS011;51175;51.186;0.276;2024-02-26T02:03:11;22.77;;;10.88;;
64738;SDS011;51175;51.186;0.276;2024-02-26T02:03:42;19.98;;;9.93;;
64738;SDS011;51175;51.186;0.276;2024-02-26T02:04:13;29.77;;;12.65;;
64738;SDS011;51175;51.186;0.276;2024-02-26T02:04:45;25.25;;;12.10;;
64738;SDS011;51175;51.186;0.276;2024-02-26T02:05:16;32.03;;;12.10;;
64738;SDS011;51175;51.186;0.276;2024-02-26T02:05:47;25.00;;;10.93;;
64738;SDS011;51175;51.186;0.276;2024-02-26T02:06:17;28.25;;;11.60;;
64738;SDS011;51175;51.186;0.276;2024-02-26T02:06:48;25.52;;;12.00;;
64738;SDS011;51175;51.186;0.276;2024-02-26T02:07:20;23.23;;;12.27;;
64738;SDS011;51175;51.186;0.276;2024-02-26T02:07:53;24.48;;;11.10;;
64738;SDS011;51175;51.186;0.276;2024-02-26T02:08:23;24.77;;;10.70;;
64738;SDS011;51175;51.186;0.276;2024-02-26T02:08:55;27.92;;;11.35;;
64738;SDS011;51175;51.186;0.276;2024-02-26T02:09:26;27.00;;;12.35;;
64738;SDS011;51175;51.186;0.276;2024-02-26T02:09:57;25.70;;;10.95;;
64738;SDS011;51175;51.186;0.276;2024-02-26T02:10:28;33.78;;;12.80;;
64738;SDS011;51175;51.186;0.276;2024-02-26T02:10:59;26.17;;;11.13;;
64738;SDS011;51175;51.186;0.276;2024-02-26T02:11:29;26.90;;;12.27;;
64738;SDS011;51175;51.186;0.276;2024-02-26T02:12:00;29.70;;;12.27;;
64738;SDS011;51175;51.186;0.276;2024-02-26T02:12:31;27.85;;;11.50;;
64738;SDS011;51175;51.186;0.276;2024-02-26T02:13:03;21.60;;;12.32;;
64738;SDS011;51175;51.186;0.276;2024-02-26T02:13:34;23.52;;;11.25;;
64738;SDS011;51175;51.186;0.276;2024-02-26T02:14:04;22.95;;;12.05;;
64738;SDS011;51175;51.186;0.276;2024-02-26T02:14:35;23.52;;;11.82;;
64738;SDS011;51175;51.186;0.276;2024-02-26T02:15:05;28.10;;;11.88;;
64738;SDS011;51175;51.186;0.276;2024-02-26T02:15:36;25.25;;;12.18;;
64738;SDS011;51175;51.186;0.276;2024-02-26T02:16:07;25.85;;;11.02;;
64738;SDS011;51175;51.186;0.276;2024-02-26T02:16:37;23.98;;;11.65;;
64738;SDS011;51175;51.186;0.276;2024-02-26T02:17:08;24.75;;;12.13;;
64738;SDS011;51175;51.186;0.276;2024-02-26T02:17:39;26.35;;;11.95;;
64738;SDS011;51175;51.186;0.276;2024-02-26T02:18:09;30.45;;;12.50;;
64738;SDS011;51175;51.186;0.276;2024-02-26T02:18:40;26.20;;;12.43;;
64738;SDS011;51175;51.186;0.276;2024-02-26T02:19:10;24.83;;;10.88;;
64738;SDS011;51175;51.186;0.276;2024-02-26T02:19:40;21.80;;;11.80;;
64738;SDS011;51175;51.186;0.276;2024-02-26T02:20:17;24.52;;;12.13;;
64738;SDS011;51175;51.186;0.276;2024-02-26T02:20:48;25.40;;;10.85;;
64738;SDS011;51175;51.186;0.276;2024-02-26T02:21:18;25.77;;;11.02;;
64738;SDS011;51175;51.186;0.276;2024-02-26T02:21:49;27.23;;;10.93;;
64738;SDS011;51175;51.186;0.276;2024-02-26T02:22:19;27.27;;;14.35;;
64738;SDS011;51175;51.186;0.276;2024-02-26T02:22:50;24.08;;;11.30;;
64738;SDS011;51175;51.186;0.276;2024-02-26T02:23:20;18.30;;;10.65;;
64738;SDS011;51175;51.186;0.276;2024-02-26T02:23:53;34.15;;;12.40;;
64738;SDS011;51175;51.186;0.276;2024-02-26T02:24:23;20.95;;;11.65;;
64738;SDS011;51175;51.186;0.276;2024-02-26T02:24:53;30.40;;;12.27;;
64738;SDS011;51175;51.186;0.276;2024-02-26T02:25:24;21.95;;;10.73;;
64738;SDS011;51175;51.186;0.276;2024-02-26T02:26:02;28.27;;;11.63;;
64738;SDS011;51175;51.186;0.276;2024-02-26T02:26:32;33.90;;;12.95;;
64738;SDS011;51175;51.186;0.276;2024-02-26T02:27:03;22.75;;;11.63;;
64738;SDS011;51175;51.186;0.276;2024-02-26T02:27:34;28.85;;;12.52;;
64738;SDS011;51175;51.186;0.276;2024-02-26T02:28:04;24.95;;;12.07;;
64738;SDS011;51175;51.186;0.276;2024-02-26T02:28:36;21.33;;;10.82;;
64738;SDS011;51175;51.186;0.276;2024-02-26T02:29:09;25.23;;;10.80;;
64738;SDS011;51175;51.186;0.276;2024-02-26T02:29:40;23.15;;;10.98;;
64738;SDS011;51175;51.186;0.276;2024-02-26T02:30:11;26.33;;;13.70;;
64738;SDS011;51175;51.186;0.276;2024-02-26T02:30:45;22.50;;;11.55;;
64738;SDS011;51175;51.186;0.276;2024-02-26T02:31:15;25.73;;;12.52;;
64738;SDS011;51175;51.186;0.276;2024-02-26T02:31:48;26.02;;;12.43;;
64738;SDS011;51175;51.186;0.276;2024-02-26T02:32:19;27.23;;;12.52;;
64738;SDS011;51175;51.186;0.276;2024-02-26T02:32:50;29.75;;;11.90;;
64738;SDS011;51175;51.186;0.276;2024-02-26T02:33:21;22.08;;;13.27;;
64738;SDS011;51175;51.186;0.276;2024-02-26T02:33:57;22.80;;;12.55;;
64738;SDS011;51175;51.186;0.276;2024-02-26T02:34:28;33.55;;;13.52;;
64738;SDS011;51175;51.186;0.276;2024-02-26T02:34:59;21.73;;;12.05;;
64738;SDS011;51175;51.186;0.276;2024-02-26T02:35:29;24.08;;;11.57;;
64738;SDS011;51175;51.186;0.276;2024-02-26T02:35:59;28.77;;;12.43;;
64738;SDS011;51175;51.186;0.276;2024-02-26T02:36:30;22.90;;;11.98;;
64738;SDS011;51175;51.186;0.276;2024-02-26T02:37:01;25.70;;;12.13;;
64738;SDS011;51175;51.186;0.276;2024-02-26T02:37:31;22.80;;;11.52;;
64738;SDS011;51175;51.186;0.276;2024-02-26T02:38:01;24.70;;;13.32;;
64738;SDS011;51175;51.186;0.276;2024-02-26T02:38:33;30.73;;;12.50;;
64738;SDS011;51175;51.186;0.276;2024-02-26T02:39:03;27.05;;;13.57;;
64738;SDS011;51175;51.186;0.276;2024-02-26T02:39:34;26.45;;;12.88;;
64738;SDS011;51175;51.186;0.276;2024-02-26T02:40:04;28.75;;;11.63;;
64738;SDS011;51175;51.186;0.276;2024-02-26T02:40:38;25.30;;;12.52;;
64738;SDS011;51175;51.186;0.276;2024-02-26T02:41:08;33.70;;;12.35;;
64738;SDS011;51175;51.186;0.276;2024-02-26T02:41:39;24.48;;;10.82;;
64738;SDS011;51175;51.186;0.276;2024-02-26T02:42:09;28.23;;;13.43;;
64738;SDS011;51175;51.186;0.276;2024-02-26T02:42:43;25.35;;;12.95;;
64738;SDS011;51175;51.186;0.276;2024-02-26T02:43:15;26.60;;;12.82;;
64738;SDS011;51175;51.186;0.276;2024-02-26T02:43:46;21.48;;;11.18;;
64738;SDS011;51175;51.186;0.276;2024-02-26T02:44:16;30.30;;;12.68;;
64738;SDS011;51175;51.186;0.276;2024-02-26T02:44:47;24.13;;;11.85;;
64738;SDS011;51175;51.186;0.276;2024-02-26T02:45:17;25.08;;;11.52;;
64738;SDS011;51175;51.186;0.276;2024-02-26T02:45:48;28.15;;;13.27;;
64738;SDS011;51175;51.186;0.276;2024-02-26T02:46:25;26.30;;;10.60;;
64738;SDS011;51175;51.186;0.276;2024-02-26T02:46:56;22.67;;;11.43;;
64738;SDS011;51175;51.186;0.276;2024-02-26T02:47:26;24.63;;;11.77;;
64738;SDS011;51175;51.186;0.276;2024-02-26T02:47:59;21.77;;;12.18;;
64738;SDS011;51175;51.186;0.276;2024-02-26T02:48:29;23.40;;;11.63;;
64738;SDS011;51175;51.186;0.276;2024-02-26T02:49:00;24.88;;;9.85;;
64738;SDS011;51175;51.186;0.276;2024-02-26T02:49:38;26.95;;;10.93;;
64738;SDS011;51175;51.186;0.276;2024-02-26T02:50:08;22.55;;;12.07;;
64738;SDS011;51175;51.186;0.276;2024-02-26T02:50:39;26.60;;;10.82;;
64738;SDS011;51175;51.186;0.276;2024-02-26T02:51:10;19.42;;;11.18;;
64738;SDS011;51175;51.186;0.276;2024-02-26T02:51:40;30.92;;;12.38;;
64738;SDS011;51175;51.186;0.276;2024-02-26T02:52:11;19.17;;;10.68;;
64738;SDS011;51175;51.186;0.276;2024-02-26T02:52:41;25.35;;;10.68;;
64738;SDS011;51175;51.186;0.276;2024-02-26T02:53:12;18.25;;;10.30;;
64738;SDS011;51175;51.186;0.276;2024-02-26T02:53:46;17.80;;;11.68;;
64738;SDS011;51175;51.186;0.276;2024-02-26T02:54:16;23.77;;;9.85;;
64738;SDS011;51175;51.186;0.276;2024-02-26T02:54:46;23.25;;;9.70;;
64738;SDS011;51175;51.186;0.276;2024-02-26T02:55:17;20.33;;;11.10;;
64738;SDS011;51175;51.186;0.276;2024-02-26T02:55:48;21.77;;;11.05;;
64738;SDS011;51175;51.186;0.276;2024-02-26T02:56:18;23.52;;;11.13;;
64738;SDS011;51175;51.186;0.276;2024-02-26T02:56:51;25.35;;;12.75;;
64738;SDS011;51175;51.186;0.276;2024-02-26T02:57:22;23.30;;;10.32;;
64738;SDS011;51175;51.186;0.276;2024-02-26T02:57:55;29.27;;;12.65;;
64738;SDS011;51175;51.186;0.276;2024-02-26T02:58:26;23.45;;;11.68;;
64738;SDS011;51175;51.186;0.276;2024-02-26T02:58:56;25.10;;;11.65;;
64738;SDS011;51175;51.186;0.276;2024-02-26T02:59:27;24.40;;;10.35;;
64738;SDS011;51175;51.186;0.276;2024-02-26T02:59:57;23.60;;;12.00;;
64738;SDS011;51175;51.186;0.276;2024-02-26T03:00:28;27.48;;;10.73;;
64738;SDS011;51175;51.186;0.276;2024-02-26T03:00:58;20.38;;;11.63;;
64738;SDS011;51175;51.186;0.276;2024-02-26T03:01:30;19.88;;;10.65;;
64738;SDS011;51175;51.186;0.276;2024-02-26T03:02:06;19.33;;;10.23;;
64738;SDS011;51175;51.186;0.276;2024-02-26T03:02:36;24.23;;;11.73;;
64738;SDS011;51175;51.186;0.276;2024-02-26T03:03:07;18.90;;;11.10;;
64738;SDS011;51175;51.186;0.276;2024-02-26T03:03:37;21.27;;;10.77;;
64738;SDS011;51175;51.186;0.276;2024-02-26T03:04:08;25.17;;;12.20;;